Amherst, Ohio
Current Conditions -  °F | °C
As of 6:53 PM on Friday 21 Nov 2014 (Local Time) from KLPR Reporting Station
Clear Clear  
Wind Chill: 11°   Ceiling: Unl
Heat Index: 19°   Visibility: 10mi
Dew Point:   Wind: 6mph
Humidity: 65%   Direction: 200°SSW
Pressure: 30.46"   Gusts: NA
Location:  41.41°N, 82.24°W
Report Text: KLPR 212353Z AUTO 20005KT 10SM CLR M07/M13 A3046 RMK AO2 SLP329 T10721128 11044 21072 58007 TSNO
Loading
Personal Weather Stations






























Interactive Weather Map New forecast layout! Learn more

10-Day Weather Forecast

Advertisements
Track Severe Weather on mobile